Time;durP1;ratioP1;P1;durP2;ratioP2;P2;SDS_P1;SDS_P2;PMS_P1;PMS_P2;Temp;Humidity;BMP_temperature;BMP_pressure;BME280_temperature;BME280_humidity;BME280_pressure;Samples;Min_cycle;Max_cycle;Signal;HPM_P1;HPM_P2
2022/01/15 00:01:13;;;;;;;61.27;27.40;;;;;;;;;;5030929;28;20738;-69
2022/01/15 00:03:38;;;;;;;87.43;29.40;;;;;;;;;;5035763;28;20178;-70
2022/01/15 00:06:03;;;;;;;62.47;27.43;;;;;;;;;;5033257;28;20247;-70
2022/01/15 00:08:28;;;;;;;56.03;26.33;;;;;;;;;;5033409;28;20170;-70
2022/01/15 00:10:54;;;;;;;75.57;28.00;;;;;;;;;;5013374;28;20268;-73
2022/01/15 00:13:30;;;;;;;81.20;30.63;;;;;;;;;;5028647;28;20672;-70
2022/01/15 00:16:09;;;;;;;68.47;29.13;;;;;;;;;;5013062;28;20193;-71
2022/01/15 00:19:06;;;;;;;76.37;27.13;;;;;;;;;;5037659;28;20178;-70
2022/01/15 00:21:28;;;;;;;51.37;26.27;;;;;;;;;;5028631;28;20220;-71
2022/01/15 00:23:54;;;;;;;63.20;26.83;;;;;;;;;;5031501;28;20170;-71
2022/01/15 00:26:19;;;;;;;67.57;26.97;;;;;;;;;;5030282;28;20201;-71
2022/01/15 00:28:44;;;;;;;56.77;24.87;;;;;;;;;;5026597;28;20178;-71
2022/01/15 00:31:09;;;;;;;62.30;25.90;;;;;;;;;;5039751;28;20951;-69
2022/01/15 00:33:34;;;;;;;56.20;27.30;;;;;;;;;;5042454;28;20190;-70
2022/01/15 00:36:00;;;;;;;57.53;27.03;;;;;;;;;;5048150;28;20193;-69
2022/01/15 00:38:25;;;;;;;64.17;26.20;;;;;;;;;;5041812;28;20184;-70
2022/01/15 00:40:50;;;;;;;72.13;25.37;;;;;;;;;;5042151;28;20227;-70
2022/01/15 00:43:15;;;;;;;59.63;25.67;;;;;;;;;;5041846;28;20186;-69
2022/01/15 00:45:41;;;;;;;60.20;24.63;;;;;;;;;;5040587;28;20248;-69
2022/01/15 00:48:06;;;;;;;59.37;23.87;;;;;;;;;;5028146;28;20614;-69
2022/01/15 00:50:31;;;;;;;48.93;22.33;;;;;;;;;;5041951;28;20659;-70
2022/01/15 00:52:57;;;;;;;71.77;26.30;;;;;;;;;;5042520;28;20186;-69
2022/01/15 00:55:22;;;;;;;86.90;28.13;;;;;;;;;;5042674;28;20268;-70
2022/01/15 00:57:47;;;;;;;59.57;24.70;;;;;;;;;;5041791;28;20201;-69
2022/01/15 01:00:15;;;;;;;60.87;25.10;;;;;;;;;;5022571;28;20222;-70
2022/01/15 01:02:40;;;;;;;82.00;24.80;;;;;;;;;;5030452;28;20181;-70
2022/01/15 01:05:06;;;;;;;61.10;24.43;;;;;;;;;;5029175;28;20263;-69
2022/01/15 01:07:31;;;;;;;60.70;24.33;;;;;;;;;;5027629;28;20764;-69
2022/01/15 01:22:59;;;;;;;63.43;24.23;;;;;;;;;;5028186;28;20174;-69
2022/01/15 01:25:31;;;;;;;60.17;23.77;;;;;;;;;;5029072;28;20658;-70
2022/01/15 01:28:04;;;;;;;60.87;22.37;;;;;;;;;;5027635;28;20681;-70
2022/01/15 01:30:36;;;;;;;55.93;21.93;;;;;;;;;;5031821;28;20302;-70
2022/01/15 01:35:45;;;;;;;53.47;22.43;;;;;;;;;;5028047;28;20202;-70
2022/01/15 01:38:24;;;;;;;73.23;24.13;;;;;;;;;;5026749;28;20260;-71
2022/01/15 01:40:50;;;;;;;52.13;22.67;;;;;;;;;;5024691;28;20201;-71
2022/01/15 01:45:53;;;;;;;57.77;25.00;;;;;;;;;;5029450;28;20257;-71
2022/01/15 01:48:18;;;;;;;68.57;25.33;;;;;;;;;;5034492;28;20215;-71
2022/01/15 01:50:43;;;;;;;59.00;25.37;;;;;;;;;;5032261;28;20185;-71
2022/01/15 01:53:08;;;;;;;67.40;23.63;;;;;;;;;;5028593;28;20186;-71
2022/01/15 01:55:34;;;;;;;54.17;22.60;;;;;;;;;;5009060;28;20185;-71
2022/01/15 01:57:59;;;;;;;52.70;21.97;;;;;;;;;;5027306;28;20718;-71
2022/01/15 02:00:25;;;;;;;67.93;24.57;;;;;;;;;;5028136;28;20241;-71
2022/01/15 02:02:51;;;;;;;55.13;22.67;;;;;;;;;;5032012;28;20177;-71
2022/01/15 02:05:17;;;;;;;52.47;20.97;;;;;;;;;;5027055;28;20178;-70
2022/01/15 02:07:43;;;;;;;64.93;22.37;;;;;;;;;;5028463;28;20205;-70
2022/01/15 02:10:10;;;;;;;56.60;21.17;;;;;;;;;;5027019;28;20306;-70
2022/01/15 02:12:35;;;;;;;58.67;21.60;;;;;;;;;;5011219;28;20185;-70
2022/01/15 02:15:04;;;;;;;53.37;20.43;;;;;;;;;;5026880;28;20274;-70
2022/01/15 02:17:29;;;;;;;45.80;20.07;;;;;;;;;;5028831;28;20205;-70
2022/01/15 02:25:09;;;;;;;44.20;18.93;;;;;;;;;;5025281;28;20238;-70
2022/01/15 02:27:35;;;;;;;53.83;20.13;;;;;;;;;;5026071;28;20277;-71
2022/01/15 02:30:03;;;;;;;47.53;18.67;;;;;;;;;;5029373;28;20190;-70
2022/01/15 02:32:30;;;;;;;43.40;18.00;;;;;;;;;;5027761;28;20232;-70
2022/01/15 02:34:57;;;;;;;46.87;19.80;;;;;;;;;;5025446;28;20189;-70
2022/01/15 02:37:22;;;;;;;50.17;19.53;;;;;;;;;;5026914;28;20205;-71
2022/01/15 02:39:47;;;;;;;42.40;20.33;;;;;;;;;;5023975;28;20190;-71
2022/01/15 02:42:13;;;;;;;47.27;18.83;;;;;;;;;;5025909;28;20213;-69
2022/01/15 02:44:39;;;;;;;49.37;19.63;;;;;;;;;;5025675;28;20241;-71
2022/01/15 02:49:29;;;;;;;51.30;20.63;;;;;;;;;;5030016;28;20186;-70
2022/01/15 02:51:55;;;;;;;40.50;18.57;;;;;;;;;;5026830;28;20727;-71
2022/01/15 02:54:20;;;;;;;43.50;18.83;;;;;;;;;;5032661;28;20539;-71
2022/01/15 02:56:45;;;;;;;42.07;16.40;;;;;;;;;;5026583;28;20728;-70
2022/01/15 02:59:18;;;;;;;40.30;15.30;;;;;;;;;;5026528;28;20186;-72
2022/01/15 03:01:44;;;;;;;41.37;15.70;;;;;;;;;;5026680;28;20287;-69
2022/01/15 03:04:09;;;;;;;44.30;16.10;;;;;;;;;;5030159;28;20299;-70
2022/01/15 03:06:34;;;;;;;41.13;15.33;;;;;;;;;;5025449;28;20202;-70
2022/01/15 03:08:59;;;;;;;38.23;15.53;;;;;;;;;;5027400;28;20189;-71
2022/01/15 03:11:24;;;;;;;44.97;16.30;;;;;;;;;;5029124;28;20687;-70
2022/01/15 03:13:50;;;;;;;49.07;17.27;;;;;;;;;;5039375;28;20177;-71
2022/01/15 03:16:16;;;;;;;39.70;17.27;;;;;;;;;;5034987;28;20197;-70
2022/01/15 03:18:42;;;;;;;42.00;16.20;;;;;;;;;;5033281;28;20185;-70
2022/01/15 03:21:07;;;;;;;36.10;16.00;;;;;;;;;;5029264;28;20954;-70
2022/01/15 03:23:32;;;;;;;39.23;15.87;;;;;;;;;;5028324;28;20268;-70
2022/01/15 03:25:57;;;;;;;40.07;14.97;;;;;;;;;;5028005;28;20229;-71
2022/01/15 03:28:22;;;;;;;36.67;13.90;;;;;;;;;;5030354;28;20204;-69
2022/01/15 03:30:48;;;;;;;35.73;15.97;;;;;;;;;;5032873;28;20174;-69
2022/01/15 03:33:13;;;;;;;30.33;12.63;;;;;;;;;;5029067;28;20244;-69
2022/01/15 03:35:39;;;;;;;37.53;14.13;;;;;;;;;;5028276;28;20536;-69
2022/01/15 03:38:04;;;;;;;37.37;13.57;;;;;;;;;;5028125;28;20292;-72
2022/01/15 03:40:30;;;;;;;30.53;12.50;;;;;;;;;;5029970;28;20202;-69
2022/01/15 03:42:55;;;;;;;34.70;13.27;;;;;;;;;;5028600;28;20661;-69
2022/01/15 03:45:20;;;;;;;33.20;13.47;;;;;;;;;;5031456;28;20218;-70
2022/01/15 03:47:46;;;;;;;38.63;14.83;;;;;;;;;;5032215;28;20346;-70
2022/01/15 03:50:12;;;;;;;43.10;16.27;;;;;;;;;;5029685;28;20195;-70
2022/01/15 03:52:37;;;;;;;40.13;14.93;;;;;;;;;;5028062;28;20254;-71
2022/01/15 03:55:03;;;;;;;39.30;15.37;;;;;;;;;;5028168;28;20220;-72
2022/01/15 03:57:29;;;;;;;39.70;15.23;;;;;;;;;;5028455;28;20279;-69
2022/01/15 03:59:54;;;;;;;37.87;15.93;;;;;;;;;;5028128;28;20184;-72
2022/01/15 04:02:19;;;;;;;43.63;16.57;;;;;;;;;;5028830;28;20604;-70
2022/01/15 04:04:44;;;;;;;31.37;13.50;;;;;;;;;;5028800;28;20188;-70
2022/01/15 04:07:09;;;;;;;29.43;12.47;;;;;;;;;;5027939;28;20201;-70
2022/01/15 04:09:35;;;;;;;32.47;12.60;;;;;;;;;;5030962;28;20297;-70
2022/01/15 04:12:00;;;;;;;39.63;13.60;;;;;;;;;;5028500;28;20193;-71
2022/01/15 04:14:25;;;;;;;35.33;13.10;;;;;;;;;;5029022;28;20190;-71
2022/01/15 04:16:50;;;;;;;35.40;15.03;;;;;;;;;;5029999;28;20197;-69
2022/01/15 04:19:16;;;;;;;37.83;15.67;;;;;;;;;;5030260;28;20187;-70
2022/01/15 04:21:41;;;;;;;33.30;13.90;;;;;;;;;;5026976;28;20860;-70
2022/01/15 04:24:06;;;;;;;32.47;14.00;;;;;;;;;;5027434;28;20265;-70
2022/01/15 04:26:32;;;;;;;31.17;12.77;;;;;;;;;;5028047;28;20197;-70
2022/01/15 04:29:03;;;;;;;33.63;13.60;;;;;;;;;;5028872;28;20186;-70
2022/01/15 04:31:35;;;;;;;32.90;14.63;;;;;;;;;;5026475;28;20263;-70
2022/01/15 04:34:00;;;;;;;41.57;15.77;;;;;;;;;;5028658;28;20197;-70
2022/01/15 04:36:25;;;;;;;35.43;15.00;;;;;;;;;;5028737;28;20213;-71
2022/01/15 04:38:50;;;;;;;31.43;14.13;;;;;;;;;;5027759;28;20205;-70
2022/01/15 04:41:15;;;;;;;34.10;13.97;;;;;;;;;;5025798;28;20201;-70
2022/01/15 04:43:41;;;;;;;48.20;15.77;;;;;;;;;;5026619;28;20250;-70
2022/01/15 04:46:06;;;;;;;32.93;13.33;;;;;;;;;;5027380;28;21759;-70
2022/01/15 04:48:31;;;;;;;40.63;15.97;;;;;;;;;;5029018;28;20252;-70
2022/01/15 04:50:56;;;;;;;47.10;16.30;;;;;;;;;;5027686;28;20182;-70
2022/01/15 04:53:21;;;;;;;63.47;18.70;;;;;;;;;;5028443;28;20250;-70
2022/01/15 04:55:47;;;;;;;57.70;18.67;;;;;;;;;;5027053;28;20533;-70
2022/01/15 04:58:12;;;;;;;58.60;19.87;;;;;;;;;;5027522;28;20225;-70
2022/01/15 05:00:38;;;;;;;52.90;20.30;;;;;;;;;;5028209;28;20209;-70
2022/01/15 05:03:03;;;;;;;76.90;21.53;;;;;;;;;;5040912;28;20188;-70
2022/01/15 05:05:29;;;;;;;59.03;19.63;;;;;;;;;;5026158;28;20465;-70
2022/01/15 05:07:55;;;;;;;71.97;19.63;;;;;;;;;;5027682;28;21910;-70
2022/01/15 05:10:24;;;;;;;55.20;19.63;;;;;;;;;;5026369;28;20323;-70
2022/01/15 05:12:50;;;;;;;55.50;19.10;;;;;;;;;;5027958;28;20189;-70
2022/01/15 05:15:16;;;;;;;50.27;21.10;;;;;;;;;;5026049;28;20193;-70
2022/01/15 05:17:42;;;;;;;54.73;20.43;;;;;;;;;;5033146;28;20278;-70
2022/01/15 05:20:28;;;;;;;47.20;18.73;;;;;;;;;;5030972;28;20651;-71
2022/01/15 05:22:54;;;;;;;54.73;20.53;;;;;;;;;;5026127;28;20232;-71
2022/01/15 05:25:19;;;;;;;63.70;22.33;;;;;;;;;;5026813;28;20655;-69
2022/01/15 05:27:45;;;;;;;56.27;19.60;;;;;;;;;;5027697;28;20232;-71
2022/01/15 05:30:11;;;;;;;52.90;19.63;;;;;;;;;;5026975;28;20575;-70
2022/01/15 05:32:36;;;;;;;42.83;18.33;;;;;;;;;;5029599;28;20181;-70
2022/01/15 05:35:02;;;;;;;41.73;19.23;;;;;;;;;;5027602;28;20205;-70
2022/01/15 05:37:27;;;;;;;60.00;19.60;;;;;;;;;;5026599;28;20575;-71
2022/01/15 05:39:52;;;;;;;51.57;18.60;;;;;;;;;;5026862;28;20185;-71
2022/01/15 05:42:18;;;;;;;48.67;17.17;;;;;;;;;;5026972;28;20190;-70
2022/01/15 05:44:43;;;;;;;38.63;17.07;;;;;;;;;;5026047;28;20201;-69
2022/01/15 05:47:08;;;;;;;56.03;17.33;;;;;;;;;;5028826;28;20209;-70
2022/01/15 05:49:34;;;;;;;46.50;17.67;;;;;;;;;;5015717;28;20205;-69
2022/01/15 05:51:59;;;;;;;42.30;17.97;;;;;;;;;;5026760;28;21163;-69
2022/01/15 05:54:24;;;;;;;66.13;19.17;;;;;;;;;;5025760;28;20547;-69
2022/01/15 05:56:50;;;;;;;49.30;17.93;;;;;;;;;;5027661;28;20267;-68
2022/01/15 05:59:15;;;;;;;71.80;20.27;;;;;;;;;;5028213;28;20189;-69
2022/01/15 06:01:40;;;;;;;64.03;18.60;;;;;;;;;;5012797;28;20339;-69
2022/01/15 06:04:05;;;;;;;47.73;18.30;;;;;;;;;;5014297;28;20182;-69
2022/01/15 06:06:31;;;;;;;55.03;19.13;;;;;;;;;;5027410;28;20225;-69
2022/01/15 06:08:56;;;;;;;45.63;22.10;;;;;;;;;;5027655;28;20576;-70
2022/01/15 06:11:23;;;;;;;63.23;20.33;;;;;;;;;;5010658;28;20192;-70
2022/01/15 06:13:48;;;;;;;86.30;19.73;;;;;;;;;;5027011;28;20452;-69
2022/01/15 06:16:14;;;;;;;57.70;21.53;;;;;;;;;;5028282;28;20202;-70
2022/01/15 06:18:39;;;;;;;59.70;22.00;;;;;;;;;;5030058;28;20436;-69
2022/01/15 06:21:04;;;;;;;58.50;19.87;;;;;;;;;;5026091;28;20722;-69
2022/01/15 06:23:29;;;;;;;68.20;24.13;;;;;;;;;;5026380;28;20178;-69
2022/01/15 06:25:55;;;;;;;76.77;22.60;;;;;;;;;;5026245;28;20197;-70
2022/01/15 06:28:20;;;;;;;61.17;21.67;;;;;;;;;;5025211;28;20893;-69
2022/01/15 06:30:46;;;;;;;46.43;21.43;;;;;;;;;;5026237;28;20669;-70
2022/01/15 06:33:11;;;;;;;68.07;22.93;;;;;;;;;;5027458;28;20173;-70
2022/01/15 06:35:36;;;;;;;57.93;24.50;;;;;;;;;;5026681;28;20186;-70
2022/01/15 06:38:01;;;;;;;67.80;23.47;;;;;;;;;;5026516;28;20182;-71
2022/01/15 06:40:27;;;;;;;65.93;25.07;;;;;;;;;;5026088;28;20540;-70
2022/01/15 06:42:52;;;;;;;67.80;25.23;;;;;;;;;;5026545;28;20195;-71
2022/01/15 06:45:17;;;;;;;58.17;23.03;;;;;;;;;;5016751;28;20193;-71
2022/01/15 06:47:42;;;;;;;68.87;23.60;;;;;;;;;;5033636;28;20290;-69
2022/01/15 06:50:08;;;;;;;87.90;25.40;;;;;;;;;;5030091;28;20188;-69
2022/01/15 06:52:37;;;;;;;75.57;22.93;;;;;;;;;;5027993;28;20192;-69
2022/01/15 06:55:03;;;;;;;58.07;21.60;;;;;;;;;;5028668;28;20182;-69
2022/01/15 06:57:28;;;;;;;107.43;25.50;;;;;;;;;;5028753;28;20209;-72
2022/01/15 06:59:54;;;;;;;79.07;25.37;;;;;;;;;;5011329;28;20173;-70
2022/01/15 07:02:19;;;;;;;61.77;22.73;;;;;;;;;;5031923;28;20175;-70
2022/01/15 07:04:44;;;;;;;82.10;26.47;;;;;;;;;;5029825;28;20190;-70
2022/01/15 07:07:10;;;;;;;54.63;22.20;;;;;;;;;;5029411;28;20293;-70
2022/01/15 07:09:35;;;;;;;62.13;23.20;;;;;;;;;;5029507;28;20181;-70
2022/01/15 07:12:01;;;;;;;70.77;24.57;;;;;;;;;;5028985;28;20178;-70
2022/01/15 07:14:26;;;;;;;64.20;25.73;;;;;;;;;;5012992;28;20284;-70
2022/01/15 07:16:51;;;;;;;77.00;23.47;;;;;;;;;;5030445;28;20237;-70
2022/01/15 07:19:16;;;;;;;55.33;22.37;;;;;;;;;;5012243;28;20276;-70
2022/01/15 07:21:41;;;;;;;77.67;23.20;;;;;;;;;;5033622;28;20757;-70
2022/01/15 07:24:07;;;;;;;51.03;20.97;;;;;;;;;;5029053;28;20186;-69
2022/01/15 07:26:32;;;;;;;85.00;21.70;;;;;;;;;;5028992;28;20693;-70
2022/01/15 07:28:58;;;;;;;51.17;19.37;;;;;;;;;;5030272;28;20652;-70
2022/01/15 07:31:23;;;;;;;77.53;21.03;;;;;;;;;;5029180;28;20188;-70
2022/01/15 07:33:48;;;;;;;83.23;21.23;;;;;;;;;;5028786;28;20193;-69
2022/01/15 07:36:15;;;;;;;72.47;21.00;;;;;;;;;;5030080;28;20203;-70
2022/01/15 07:38:40;;;;;;;52.20;19.07;;;;;;;;;;5029576;28;20670;-70
2022/01/15 07:41:06;;;;;;;53.43;19.67;;;;;;;;;;5028240;28;20214;-70
2022/01/15 07:43:31;;;;;;;69.70;20.70;;;;;;;;;;5026296;28;20650;-70
2022/01/15 07:45:56;;;;;;;51.77;20.30;;;;;;;;;;5028306;28;20501;-70
2022/01/15 07:48:22;;;;;;;59.77;20.70;;;;;;;;;;5031069;28;20238;-70
2022/01/15 07:50:47;;;;;;;67.87;22.17;;;;;;;;;;5028199;28;20182;-70
2022/01/15 07:53:12;;;;;;;100.63;22.17;;;;;;;;;;5030319;28;20242;-70
2022/01/15 07:55:38;;;;;;;63.53;21.73;;;;;;;;;;5028042;28;20251;-70
2022/01/15 07:58:03;;;;;;;69.30;22.27;;;;;;;;;;5029668;28;20181;-70
2022/01/15 08:00:29;;;;;;;66.07;23.13;;;;;;;;;;5029546;28;20206;-70
2022/01/15 08:02:54;;;;;;;55.63;22.50;;;;;;;;;;5036724;28;20193;-70
2022/01/15 08:05:19;;;;;;;67.80;23.00;;;;;;;;;;5029768;28;20186;-70
2022/01/15 08:07:44;;;;;;;62.37;23.67;;;;;;;;;;5029732;28;20623;-70
2022/01/15 08:10:10;;;;;;;61.37;22.40;;;;;;;;;;5028370;28;20186;-70
2022/01/15 08:12:43;;;;;;;94.93;25.30;;;;;;;;;;5027940;28;20181;-70
2022/01/15 08:15:08;;;;;;;64.43;23.37;;;;;;;;;;5030248;28;20782;-70
2022/01/15 08:17:34;;;;;;;89.20;28.13;;;;;;;;;;5030393;28;20233;-70
2022/01/15 08:19:59;;;;;;;59.97;22.47;;;;;;;;;;5030603;28;20178;-70
2022/01/15 08:22:24;;;;;;;112.23;25.03;;;;;;;;;;5032342;28;20213;-70
2022/01/15 08:24:50;;;;;;;90.73;24.63;;;;;;;;;;5027421;28;20181;-69
2022/01/15 08:27:15;;;;;;;54.27;21.87;;;;;;;;;;5018535;28;20216;-69
2022/01/15 08:29:40;;;;;;;85.13;24.07;;;;;;;;;;5026261;28;20185;-70
2022/01/15 08:32:05;;;;;;;98.53;25.70;;;;;;;;;;5028516;28;20191;-70
2022/01/15 08:34:31;;;;;;;76.57;26.20;;;;;;;;;;5010796;28;20181;-69
2022/01/15 08:36:56;;;;;;;98.07;25.57;;;;;;;;;;5028065;28;20208;-68
2022/01/15 08:39:21;;;;;;;97.90;25.87;;;;;;;;;;5028785;28;20375;-70
2022/01/15 08:41:48;;;;;;;65.33;23.97;;;;;;;;;;5026625;28;20206;-69
2022/01/15 08:44:16;;;;;;;79.67;24.87;;;;;;;;;;5029269;28;20632;-69
2022/01/15 08:46:42;;;;;;;63.77;23.10;;;;;;;;;;5032801;28;20928;-70
2022/01/15 08:49:07;;;;;;;61.50;25.53;;;;;;;;;;5030744;28;20255;-70
2022/01/15 08:51:33;;;;;;;67.33;24.67;;;;;;;;;;5027281;28;20678;-70
2022/01/15 08:53:58;;;;;;;93.30;25.27;;;;;;;;;;5027678;28;20208;-70
2022/01/15 08:56:23;;;;;;;72.37;26.10;;;;;;;;;;5028654;28;20206;-70
2022/01/15 08:58:48;;;;;;;74.93;23.83;;;;;;;;;;5027856;28;20192;-70
2022/01/15 09:01:13;;;;;;;66.33;23.50;;;;;;;;;;5012799;28;20748;-70
2022/01/15 09:03:42;;;;;;;80.77;25.07;;;;;;;;;;5034002;28;20194;-69
2022/01/15 09:06:07;;;;;;;75.63;25.63;;;;;;;;;;5027165;28;20809;-69
2022/01/15 09:08:32;;;;;;;78.20;25.47;;;;;;;;;;5029036;28;20278;-69
2022/01/15 09:10:57;;;;;;;80.67;24.37;;;;;;;;;;5030189;28;20269;-70
2022/01/15 09:13:23;;;;;;;90.97;25.80;;;;;;;;;;5027972;28;20197;-70
2022/01/15 09:15:50;;;;;;;93.60;25.87;;;;;;;;;;5027541;28;20210;-70
2022/01/15 09:18:15;;;;;;;69.47;25.77;;;;;;;;;;5011785;28;20786;-70
2022/01/15 09:20:40;;;;;;;84.60;26.50;;;;;;;;;;5031055;28;20209;-70
2022/01/15 09:23:06;;;;;;;64.00;24.30;;;;;;;;;;5027037;28;20446;-72
2022/01/15 09:25:31;;;;;;;89.27;26.37;;;;;;;;;;5028126;28;21575;-69
2022/01/15 09:30:40;;;;;;;64.37;23.80;;;;;;;;;;5028472;28;20482;-70
2022/01/15 09:33:06;;;;;;;50.97;21.60;;;;;;;;;;5027932;28;20177;-71
2022/01/15 09:35:32;;;;;;;66.60;24.60;;;;;;;;;;5028529;28;20191;-70
2022/01/15 09:37:57;;;;;;;67.77;24.80;;;;;;;;;;5028063;28;20193;-71
2022/01/15 09:40:24;;;;;;;66.93;23.70;;;;;;;;;;5029165;28;20206;-71
2022/01/15 09:42:49;;;;;;;66.10;23.10;;;;;;;;;;5028657;28;20182;-71
2022/01/15 09:45:15;;;;;;;62.73;24.73;;;;;;;;;;5029976;28;20185;-71
2022/01/15 09:47:41;;;;;;;68.77;21.93;;;;;;;;;;5036497;28;20322;-71
2022/01/15 09:50:16;;;;;;;72.80;23.40;;;;;;;;;;5026641;28;20264;-71
2022/01/15 09:52:42;;;;;;;61.23;23.23;;;;;;;;;;5028060;28;20189;-70
2022/01/15 09:55:09;;;;;;;62.07;21.87;;;;;;;;;;5027606;28;20173;-71
2022/01/15 09:57:35;;;;;;;79.30;23.60;;;;;;;;;;5027335;28;20199;-70
2022/01/15 10:00:01;;;;;;;58.70;22.17;;;;;;;;;;5010100;28;20221;-71
2022/01/15 10:02:26;;;;;;;52.90;23.43;;;;;;;;;;5029123;28;21077;-72
2022/01/15 10:04:51;;;;;;;52.87;21.33;;;;;;;;;;5030256;28;20262;-70
2022/01/15 10:07:19;;;;;;;51.73;21.90;;;;;;;;;;5029614;28;21319;-70
2022/01/15 10:09:45;;;;;;;55.53;23.20;;;;;;;;;;5030807;28;21838;-71
2022/01/15 10:12:11;;;;;;;76.87;22.10;;;;;;;;;;5028747;28;20192;-71
2022/01/15 10:14:40;;;;;;;75.20;21.60;;;;;;;;;;5027982;28;20189;-70
2022/01/15 10:17:33;;;;;;;57.60;19.87;;;;;;;;;;5031233;28;20216;-70
2022/01/15 10:19:59;;;;;;;56.00;21.73;;;;;;;;;;5028984;28;20216;-71
2022/01/15 10:22:25;;;;;;;51.33;17.60;;;;;;;;;;5031010;28;20299;-71
2022/01/15 10:25:00;;;;;;;53.30;17.67;;;;;;;;;;5032141;28;20264;-70
2022/01/15 10:27:26;;;;;;;39.90;16.57;;;;;;;;;;5030814;28;20797;-71
2022/01/15 10:29:54;;;;;;;42.73;17.57;;;;;;;;;;5032655;28;20247;-70
2022/01/15 10:32:20;;;;;;;37.97;15.83;;;;;;;;;;5031923;28;20607;-69
2022/01/15 10:34:45;;;;;;;51.17;16.00;;;;;;;;;;5031355;28;20189;-69
2022/01/15 10:37:15;;;;;;;37.27;15.93;;;;;;;;;;5015643;28;20220;-70
2022/01/15 10:39:52;;;;;;;32.77;14.90;;;;;;;;;;5032930;28;20249;-70
2022/01/15 10:42:22;;;;;;;38.13;13.90;;;;;;;;;;5033782;28;20225;-70
2022/01/15 10:44:47;;;;;;;40.63;16.83;;;;;;;;;;5029651;28;20182;-70
2022/01/15 10:47:16;;;;;;;45.73;15.43;;;;;;;;;;5033562;28;22204;-70
2022/01/15 10:49:41;;;;;;;41.63;16.07;;;;;;;;;;5031656;28;20607;-69
2022/01/15 10:52:14;;;;;;;35.20;15.93;;;;;;;;;;5031868;28;20188;-69
2022/01/15 10:54:51;;;;;;;37.83;15.87;;;;;;;;;;5030475;28;20209;-70
2022/01/15 10:57:18;;;;;;;30.53;14.40;;;;;;;;;;5030867;28;20205;-71
2022/01/15 10:59:54;;;;;;;34.93;16.10;;;;;;;;;;5030926;28;20189;-71
2022/01/15 11:02:20;;;;;;;35.13;15.27;;;;;;;;;;5032452;28;20228;-71
2022/01/15 11:04:46;;;;;;;42.97;13.40;;;;;;;;;;5034385;28;20177;-71
2022/01/15 11:07:12;;;;;;;25.53;12.47;;;;;;;;;;5031546;28;20276;-71
2022/01/15 11:09:37;;;;;;;42.13;13.60;;;;;;;;;;5034014;28;20182;-71
2022/01/15 11:12:04;;;;;;;32.73;15.43;;;;;;;;;;5032071;28;20181;-71
2022/01/15 11:14:29;;;;;;;30.00;13.23;;;;;;;;;;5030677;28;20287;-70
2022/01/15 11:16:56;;;;;;;28.93;14.17;;;;;;;;;;5031461;28;20695;-70
2022/01/15 11:19:22;;;;;;;28.97;13.63;;;;;;;;;;5014971;28;20185;-70
2022/01/15 11:21:47;;;;;;;32.03;14.67;;;;;;;;;;5031476;28;20416;-71
2022/01/15 11:24:12;;;;;;;31.50;13.93;;;;;;;;;;5029741;28;20173;-70
2022/01/15 11:26:38;;;;;;;46.57;16.63;;;;;;;;;;5029366;28;20215;-70
2022/01/15 11:29:03;;;;;;;32.43;14.47;;;;;;;;;;5030550;28;20288;-70
2022/01/15 11:31:31;;;;;;;56.37;17.23;;;;;;;;;;5030164;28;20182;-70
2022/01/15 11:33:57;;;;;;;38.07;15.47;;;;;;;;;;5035089;28;20253;-71
2022/01/15 11:36:39;;;;;;;52.90;18.30;;;;;;;;;;5032345;28;20287;-71
2022/01/15 11:39:06;;;;;;;44.77;14.53;;;;;;;;;;5032184;28;20178;-71
2022/01/15 11:41:31;;;;;;;35.93;15.33;;;;;;;;;;5030764;28;20204;-70
2022/01/15 11:44:00;;;;;;;51.50;14.30;;;;;;;;;;5030842;28;20178;-71
2022/01/15 11:46:28;;;;;;;40.20;13.90;;;;;;;;;;5030441;28;20300;-71
2022/01/15 11:49:12;;;;;;;35.47;14.40;;;;;;;;;;5030306;28;20177;-70
2022/01/15 11:51:37;;;;;;;33.57;14.90;;;;;;;;;;5030235;28;20468;-71
2022/01/15 11:54:09;;;;;;;34.53;14.07;;;;;;;;;;5021774;28;20671;-70
2022/01/15 11:56:45;;;;;;;27.57;13.80;;;;;;;;;;5026899;28;20210;-71
2022/01/15 11:59:25;;;;;;;29.90;13.17;;;;;;;;;;5017333;28;20838;-71
2022/01/15 12:01:55;;;;;;;32.13;15.07;;;;;;;;;;5031533;28;21287;-71
2022/01/15 12:04:24;;;;;;;30.10;14.00;;;;;;;;;;5033798;28;20208;-71
2022/01/15 12:07:01;;;;;;;31.97;14.77;;;;;;;;;;5028185;28;20202;-70
2022/01/15 12:09:47;;;;;;;36.90;15.07;;;;;;;;;;5032617;28;20220;-71
2022/01/15 12:12:18;;;;;;;36.37;15.10;;;;;;;;;;5029898;28;20231;-70
2022/01/15 12:14:50;;;;;;;36.70;16.80;;;;;;;;;;5032125;28;20182;-71
2022/01/15 12:17:30;;;;;;;34.93;15.10;;;;;;;;;;5048498;28;20216;-69
2022/01/15 12:19:56;;;;;;;36.13;16.37;;;;;;;;;;5034506;28;20192;-69
2022/01/15 12:22:34;;;;;;;35.53;16.83;;;;;;;;;;5029525;28;20210;-70
2022/01/15 12:24:59;;;;;;;44.67;17.73;;;;;;;;;;5028368;28;20239;-69
2022/01/15 12:27:28;;;;;;;40.70;16.40;;;;;;;;;;5030136;28;20205;-69
2022/01/15 12:30:06;;;;;;;34.00;18.07;;;;;;;;;;5028323;28;20182;-69
2022/01/15 12:32:38;;;;;;;49.57;19.00;;;;;;;;;;5032871;28;20181;-69
2022/01/15 12:35:03;;;;;;;34.03;16.83;;;;;;;;;;5009148;28;20246;-69
2022/01/15 12:37:29;;;;;;;30.00;14.00;;;;;;;;;;5030960;28;20616;-70
2022/01/15 12:39:54;;;;;;;30.60;14.43;;;;;;;;;;5028670;28;20181;-71
2022/01/15 12:42:21;;;;;;;25.23;13.90;;;;;;;;;;5028909;28;20237;-70
2022/01/15 12:44:47;;;;;;;27.73;14.17;;;;;;;;;;5028359;28;20193;-70
2022/01/15 12:47:13;;;;;;;24.77;13.30;;;;;;;;;;5038212;28;20216;-70
2022/01/15 12:49:40;;;;;;;23.87;14.33;;;;;;;;;;5031843;28;20181;-70
2022/01/15 12:52:11;;;;;;;23.40;12.80;;;;;;;;;;5029288;28;20279;-70
2022/01/15 12:54:37;;;;;;;24.00;13.40;;;;;;;;;;5029436;28;21269;-71
2022/01/15 12:57:02;;;;;;;24.83;11.83;;;;;;;;;;5027830;28;20284;-70
2022/01/15 12:59:27;;;;;;;25.97;12.70;;;;;;;;;;5029908;28;20712;-70
2022/01/15 13:01:53;;;;;;;21.70;12.93;;;;;;;;;;5009817;28;20602;-70
2022/01/15 13:04:18;;;;;;;22.30;12.47;;;;;;;;;;5031287;28;20208;-70
2022/01/15 13:06:49;;;;;;;21.10;12.70;;;;;;;;;;5028815;28;20300;-70
2022/01/15 13:09:14;;;;;;;23.40;13.10;;;;;;;;;;5035848;28;20193;-71
2022/01/15 13:11:48;;;;;;;19.80;12.10;;;;;;;;;;5027314;28;20174;-70
2022/01/15 13:14:13;;;;;;;21.47;11.07;;;;;;;;;;5029607;28;20185;-70
2022/01/15 13:16:39;;;;;;;24.40;13.60;;;;;;;;;;5030727;28;20644;-70
2022/01/15 13:19:06;;;;;;;22.73;13.20;;;;;;;;;;5030586;28;20190;-70
2022/01/15 13:21:33;;;;;;;20.97;12.90;;;;;;;;;;5038037;28;20687;-71
2022/01/15 13:24:02;;;;;;;22.40;12.80;;;;;;;;;;5011317;28;20686;-70
2022/01/15 13:26:28;;;;;;;24.40;13.40;;;;;;;;;;5010283;28;20208;-69
2022/01/15 13:28:54;;;;;;;26.27;13.83;;;;;;;;;;5031898;28;20174;-70
2022/01/15 13:31:19;;;;;;;24.93;13.67;;;;;;;;;;5027027;28;21158;-70
2022/01/15 13:33:46;;;;;;;26.70;13.93;;;;;;;;;;5027805;28;20189;-71
2022/01/15 13:36:12;;;;;;;24.90;14.37;;;;;;;;;;5027818;28;20201;-69
2022/01/15 13:38:39;;;;;;;27.57;15.27;;;;;;;;;;5030491;28;20198;-69
2022/01/15 13:41:15;;;;;;;26.43;14.53;;;;;;;;;;5032312;28;20566;-69
2022/01/15 13:43:41;;;;;;;28.30;15.67;;;;;;;;;;5028397;28;20756;-69
2022/01/15 13:46:11;;;;;;;24.03;14.03;;;;;;;;;;5031514;28;20194;-69
2022/01/15 13:48:37;;;;;;;27.23;15.43;;;;;;;;;;5016879;28;20178;-69
2022/01/15 13:53:57;;;;;;;28.93;17.40;;;;;;;;;;5031939;28;20211;-69
2022/01/15 13:56:27;;;;;;;32.87;17.40;;;;;;;;;;5030228;28;20202;-69
2022/01/15 13:58:54;;;;;;;30.47;17.27;;;;;;;;;;5033770;28;20251;-70
2022/01/15 14:01:25;;;;;;;32.73;16.77;;;;;;;;;;5028182;28;20201;-70
2022/01/15 14:03:52;;;;;;;32.93;18.60;;;;;;;;;;5025305;28;20206;-71
2022/01/15 14:06:17;;;;;;;30.37;16.57;;;;;;;;;;5049093;28;20704;-71
2022/01/15 14:08:42;;;;;;;36.63;19.67;;;;;;;;;;5013997;28;20643;-70
2022/01/15 14:11:08;;;;;;;33.53;18.20;;;;;;;;;;5029578;28;20211;-71
2022/01/15 14:13:34;;;;;;;34.47;18.80;;;;;;;;;;5029486;28;20181;-71
2022/01/15 14:15:59;;;;;;;34.27;18.57;;;;;;;;;;5032297;28;20209;-71
2022/01/15 14:18:30;;;;;;;37.30;20.67;;;;;;;;;;5030108;28;20689;-71
2022/01/15 14:23:32;;;;;;;36.70;19.33;;;;;;;;;;5028887;28;20643;-71
2022/01/15 14:25:57;;;;;;;32.27;19.03;;;;;;;;;;5027737;28;20216;-71
2022/01/15 14:28:23;;;;;;;35.73;20.13;;;;;;;;;;5016575;28;20185;-69
2022/01/15 14:30:51;;;;;;;34.27;18.80;;;;;;;;;;5029850;28;20186;-73
2022/01/15 14:33:16;;;;;;;33.90;18.57;;;;;;;;;;5013216;28;20178;-69
2022/01/15 14:35:44;;;;;;;31.13;17.60;;;;;;;;;;5046202;28;20169;-70
2022/01/15 14:38:09;;;;;;;34.93;18.20;;;;;;;;;;5053251;28;20267;-71
2022/01/15 14:40:35;;;;;;;31.57;16.90;;;;;;;;;;5050581;28;20290;-70
2022/01/15 14:43:00;;;;;;;32.23;17.70;;;;;;;;;;5045520;28;21024;-70
2022/01/15 14:45:25;;;;;;;35.93;17.63;;;;;;;;;;5034178;28;20604;-71
2022/01/15 14:47:51;;;;;;;34.60;18.23;;;;;;;;;;5056868;28;20209;-72